sensor_id;sensor_type;location;lat;lon;timestamp;temperature;humidity
44729;DHT22;30457;53.590;9.922;2022-10-15T00:03:10;18.60;61.20
44729;DHT22;30457;53.590;9.922;2022-10-15T00:07:35;18.60;61.20
44729;DHT22;30457;53.590;9.922;2022-10-15T00:12:01;18.60;61.30
44729;DHT22;30457;53.590;9.922;2022-10-15T00:16:27;18.60;61.30
44729;DHT22;30457;53.590;9.922;2022-10-15T00:20:53;18.60;61.20
44729;DHT22;30457;53.590;9.922;2022-10-15T00:25:19;18.60;61.30
44729;DHT22;30457;53.590;9.922;2022-10-15T00:29:44;18.60;61.30
44729;DHT22;30457;53.590;9.922;2022-10-15T00:34:10;18.60;61.40
44729;DHT22;30457;53.590;9.922;2022-10-15T00:38:35;18.60;61.50
44729;DHT22;30457;53.590;9.922;2022-10-15T00:43:01;18.60;61.60
44729;DHT22;30457;53.590;9.922;2022-10-15T00:47:38;18.60;61.70
44729;DHT22;30457;53.590;9.922;2022-10-15T00:52:16;18.60;62.40
44729;DHT22;30457;53.590;9.922;2022-10-15T00:56:44;18.60;61.90
44729;DHT22;30457;53.590;9.922;2022-10-15T01:01:12;18.60;61.80
44729;DHT22;30457;53.590;9.922;2022-10-15T01:05:38;18.50;61.70
44729;DHT22;30457;53.590;9.922;2022-10-15T01:10:09;18.50;61.90
44729;DHT22;30457;53.590;9.922;2022-10-15T01:14:50;18.50;62.00
44729;DHT22;30457;53.590;9.922;2022-10-15T01:24:24;18.50;62.10
44729;DHT22;30457;53.590;9.922;2022-10-15T01:34:12;18.50;62.60
44729;DHT22;30457;53.590;9.922;2022-10-15T01:39:03;18.50;62.50
44729;DHT22;30457;53.590;9.922;2022-10-15T01:43:44;18.40;62.40
44729;DHT22;30457;53.590;9.922;2022-10-15T01:48:37;18.40;62.00
44729;DHT22;30457;53.590;9.922;2022-10-15T01:53:06;18.40;61.70
44729;DHT22;30457;53.590;9.922;2022-10-15T01:57:33;18.40;61.60
44729;DHT22;30457;53.590;9.922;2022-10-15T02:01:59;18.40;61.60
44729;DHT22;30457;53.590;9.922;2022-10-15T02:06:32;18.40;61.50
44729;DHT22;30457;53.590;9.922;2022-10-15T02:11:03;18.40;61.60
44729;DHT22;30457;53.590;9.922;2022-10-15T02:20:58;18.40;61.40
44729;DHT22;30457;53.590;9.922;2022-10-15T02:25:27;18.30;61.10
44729;DHT22;30457;53.590;9.922;2022-10-15T02:29:54;18.30;60.90
44729;DHT22;30457;53.590;9.922;2022-10-15T02:34:22;18.30;60.90
44729;DHT22;30457;53.590;9.922;2022-10-15T02:38:50;18.20;60.90
44729;DHT22;30457;53.590;9.922;2022-10-15T02:43:19;18.20;60.90
44729;DHT22;30457;53.590;9.922;2022-10-15T02:47:45;18.20;60.90
44729;DHT22;30457;53.590;9.922;2022-10-15T02:52:10;18.20;60.80
44729;DHT22;30457;53.590;9.922;2022-10-15T02:56:36;18.20;60.70
44729;DHT22;30457;53.590;9.922;2022-10-15T03:01:04;18.10;60.50
44729;DHT22;30457;53.590;9.922;2022-10-15T03:05:29;18.10;60.40
44729;DHT22;30457;53.590;9.922;2022-10-15T03:09:55;18.00;60.10
44729;DHT22;30457;53.590;9.922;2022-10-15T03:14:22;18.00;60.00
44729;DHT22;30457;53.590;9.922;2022-10-15T03:18:48;18.00;60.00
44729;DHT22;30457;53.590;9.922;2022-10-15T03:23:15;17.90;59.70
44729;DHT22;30457;53.590;9.922;2022-10-15T03:27:42;17.90;59.80
44729;DHT22;30457;53.590;9.922;2022-10-15T03:32:20;17.80;59.70
44729;DHT22;30457;53.590;9.922;2022-10-15T03:36:46;17.70;59.70
44729;DHT22;30457;53.590;9.922;2022-10-15T03:41:12;17.70;59.60
44729;DHT22;30457;53.590;9.922;2022-10-15T03:45:39;17.70;59.60
44729;DHT22;30457;53.590;9.922;2022-10-15T03:50:14;17.60;59.60
44729;DHT22;30457;53.590;9.922;2022-10-15T03:54:40;17.60;59.80
44729;DHT22;30457;53.590;9.922;2022-10-15T03:59:06;17.60;60.00
44729;DHT22;30457;53.590;9.922;2022-10-15T04:03:32;17.60;60.20
44729;DHT22;30457;53.590;9.922;2022-10-15T04:07:58;17.60;60.30
44729;DHT22;30457;53.590;9.922;2022-10-15T04:12:25;17.60;60.40
44729;DHT22;30457;53.590;9.922;2022-10-15T04:16:51;17.60;60.40
44729;DHT22;30457;53.590;9.922;2022-10-15T04:21:21;17.60;60.50
44729;DHT22;30457;53.590;9.922;2022-10-15T04:25:53;17.60;60.70
44729;DHT22;30457;53.590;9.922;2022-10-15T04:30:19;17.50;60.60
44729;DHT22;30457;53.590;9.922;2022-10-15T04:34:53;17.50;60.50
44729;DHT22;30457;53.590;9.922;2022-10-15T04:39:26;17.50;60.50
44729;DHT22;30457;53.590;9.922;2022-10-15T04:43:52;17.50;60.60
44729;DHT22;30457;53.590;9.922;2022-10-15T04:48:17;17.50;60.60
44729;DHT22;30457;53.590;9.922;2022-10-15T04:52:43;17.40;60.70
44729;DHT22;30457;53.590;9.922;2022-10-15T04:57:11;17.40;60.80
44729;DHT22;30457;53.590;9.922;2022-10-15T05:01:37;17.40;61.00
44729;DHT22;30457;53.590;9.922;2022-10-15T05:06:16;17.40;60.90
44729;DHT22;30457;53.590;9.922;2022-10-15T05:10:42;17.40;61.00
44729;DHT22;30457;53.590;9.922;2022-10-15T05:15:10;17.40;60.80
44729;DHT22;30457;53.590;9.922;2022-10-15T05:19:36;17.40;61.00
44729;DHT22;30457;53.590;9.922;2022-10-15T05:24:02;17.30;61.00
44729;DHT22;30457;53.590;9.922;2022-10-15T05:28:47;17.30;61.10
44729;DHT22;30457;53.590;9.922;2022-10-15T05:33:22;17.30;61.10
44729;DHT22;30457;53.590;9.922;2022-10-15T05:37:48;17.30;60.90
44729;DHT22;30457;53.590;9.922;2022-10-15T05:42:14;17.30;60.90
44729;DHT22;30457;53.590;9.922;2022-10-15T05:46:48;17.30;60.90
44729;DHT22;30457;53.590;9.922;2022-10-15T05:51:21;17.20;60.80
44729;DHT22;30457;53.590;9.922;2022-10-15T05:55:52;17.30;61.10
44729;DHT22;30457;53.590;9.922;2022-10-15T06:00:17;17.20;61.00
44729;DHT22;30457;53.590;9.922;2022-10-15T06:04:51;17.20;61.00
44729;DHT22;30457;53.590;9.922;2022-10-15T06:09:17;17.20;61.10
44729;DHT22;30457;53.590;9.922;2022-10-15T06:13:44;17.20;61.10
44729;DHT22;30457;53.590;9.922;2022-10-15T06:18:11;17.20;61.10
44729;DHT22;30457;53.590;9.922;2022-10-15T06:22:36;17.20;61.20
44729;DHT22;30457;53.590;9.922;2022-10-15T06:27:02;17.20;61.20
44729;DHT22;30457;53.590;9.922;2022-10-15T06:31:27;17.20;61.10
44729;DHT22;30457;53.590;9.922;2022-10-15T06:35:53;17.20;61.00
44729;DHT22;30457;53.590;9.922;2022-10-15T06:40:19;17.20;61.10
44729;DHT22;30457;53.590;9.922;2022-10-15T06:44:44;17.20;61.00
44729;DHT22;30457;53.590;9.922;2022-10-15T06:49:12;17.20;61.00
44729;DHT22;30457;53.590;9.922;2022-10-15T06:53:41;17.20;61.00
44729;DHT22;30457;53.590;9.922;2022-10-15T06:58:08;17.30;61.10
44729;DHT22;30457;53.590;9.922;2022-10-15T07:02:37;17.20;61.10
44729;DHT22;30457;53.590;9.922;2022-10-15T07:07:03;17.20;60.80
44729;DHT22;30457;53.590;9.922;2022-10-15T07:11:28;17.20;60.90
44729;DHT22;30457;53.590;9.922;2022-10-15T07:15:54;17.20;61.00
44729;DHT22;30457;53.590;9.922;2022-10-15T07:20:20;17.20;61.10
44729;DHT22;30457;53.590;9.922;2022-10-15T07:24:45;17.30;61.10
44729;DHT22;30457;53.590;9.922;2022-10-15T07:29:11;17.30;61.10
44729;DHT22;30457;53.590;9.922;2022-10-15T07:33:36;17.30;61.10
44729;DHT22;30457;53.590;9.922;2022-10-15T07:38:02;17.30;61.20
44729;DHT22;30457;53.590;9.922;2022-10-15T07:42:28;17.40;61.40
44729;DHT22;30457;53.590;9.922;2022-10-15T07:46:53;17.40;61.30
44729;DHT22;30457;53.590;9.922;2022-10-15T07:51:19;17.50;61.20
44729;DHT22;30457;53.590;9.922;2022-10-15T07:55:44;17.50;61.10
44729;DHT22;30457;53.590;9.922;2022-10-15T08:00:10;17.60;61.00
44729;DHT22;30457;53.590;9.922;2022-10-15T08:04:39;17.60;60.90
44729;DHT22;30457;53.590;9.922;2022-10-15T08:09:05;17.70;61.10
44729;DHT22;30457;53.590;9.922;2022-10-15T08:13:30;17.70;61.00
44729;DHT22;30457;53.590;9.922;2022-10-15T08:17:56;17.80;60.90
44729;DHT22;30457;53.590;9.922;2022-10-15T08:22:23;17.90;60.60
44729;DHT22;30457;53.590;9.922;2022-10-15T08:26:56;18.00;60.60
44729;DHT22;30457;53.590;9.922;2022-10-15T08:31:23;18.00;60.30
44729;DHT22;30457;53.590;9.922;2022-10-15T08:35:49;18.10;60.10
44729;DHT22;30457;53.590;9.922;2022-10-15T08:40:15;18.20;60.10
44729;DHT22;30457;53.590;9.922;2022-10-15T08:44:49;18.20;60.10
44729;DHT22;30457;53.590;9.922;2022-10-15T08:49:37;18.30;60.10
44729;DHT22;30457;53.590;9.922;2022-10-15T08:54:14;18.40;60.60
44729;DHT22;30457;53.590;9.922;2022-10-15T08:58:47;18.50;60.20
44729;DHT22;30457;53.590;9.922;2022-10-15T09:03:38;18.70;60.20
44729;DHT22;30457;53.590;9.922;2022-10-15T09:13:32;19.10;59.70
44729;DHT22;30457;53.590;9.922;2022-10-15T09:18:00;19.30;59.30
44729;DHT22;30457;53.590;9.922;2022-10-15T09:22:33;19.40;58.60
44729;DHT22;30457;53.590;9.922;2022-10-15T09:27:13;19.50;58.20
44729;DHT22;30457;53.590;9.922;2022-10-15T09:31:56;19.50;57.70
44729;DHT22;30457;53.590;9.922;2022-10-15T09:36:57;19.50;57.90
44729;DHT22;30457;53.590;9.922;2022-10-15T09:46:23;19.50;58.00
44729;DHT22;30457;53.590;9.922;2022-10-15T09:50:59;19.60;58.30
44729;DHT22;30457;53.590;9.922;2022-10-15T09:55:54;19.70;57.80
44729;DHT22;30457;53.590;9.922;2022-10-15T10:00:23;19.80;58.00
44729;DHT22;30457;53.590;9.922;2022-10-15T10:04:50;19.90;58.20
44729;DHT22;30457;53.590;9.922;2022-10-15T10:09:52;20.10;58.10
44729;DHT22;30457;53.590;9.922;2022-10-15T10:14:37;20.20;57.40
44729;DHT22;30457;53.590;9.922;2022-10-15T10:19:14;20.20;56.90
44729;DHT22;30457;53.590;9.922;2022-10-15T10:23:40;20.30;56.50
44729;DHT22;30457;53.590;9.922;2022-10-15T10:28:18;20.30;57.00
44729;DHT22;30457;53.590;9.922;2022-10-15T10:32:46;20.30;56.00
44729;DHT22;30457;53.590;9.922;2022-10-15T10:37:13;20.40;56.90
44729;DHT22;30457;53.590;9.922;2022-10-15T10:46:23;20.40;56.20
44729;DHT22;30457;53.590;9.922;2022-10-15T10:51:01;20.50;56.50
44729;DHT22;30457;53.590;9.922;2022-10-15T10:55:36;20.60;55.90
44729;DHT22;30457;53.590;9.922;2022-10-15T11:00:03;20.70;56.30
44729;DHT22;30457;53.590;9.922;2022-10-15T11:04:33;20.80;56.50
44729;DHT22;30457;53.590;9.922;2022-10-15T11:09:02;20.90;55.60
44729;DHT22;30457;53.590;9.922;2022-10-15T11:27:51;21.30;53.90
44729;DHT22;30457;53.590;9.922;2022-10-15T11:32:26;21.40;54.00
44729;DHT22;30457;53.590;9.922;2022-10-15T11:41:38;21.50;54.00
44729;DHT22;30457;53.590;9.922;2022-10-15T11:51:32;21.70;53.20
44729;DHT22;30457;53.590;9.922;2022-10-15T12:01:24;21.90;52.60
44729;DHT22;30457;53.590;9.922;2022-10-15T12:05:43;21.90;52.70
44729;DHT22;30457;53.590;9.922;2022-10-15T12:14:43;22.00;52.70
44729;DHT22;30457;53.590;9.922;2022-10-15T12:23:41;22.10;51.80
44729;DHT22;30457;53.590;9.922;2022-10-15T12:28:12;22.10;51.80
44729;DHT22;30457;53.590;9.922;2022-10-15T12:32:40;22.20;52.10
44729;DHT22;30457;53.590;9.922;2022-10-15T12:37:16;22.20;51.50
44729;DHT22;30457;53.590;9.922;2022-10-15T12:41:44;22.20;51.30
44729;DHT22;30457;53.590;9.922;2022-10-15T12:46:12;22.30;51.80
44729;DHT22;30457;53.590;9.922;2022-10-15T12:50:38;22.40;51.80
44729;DHT22;30457;53.590;9.922;2022-10-15T12:55:39;22.50;51.80
44729;DHT22;30457;53.590;9.922;2022-10-15T13:04:49;22.90;51.50
44729;DHT22;30457;53.590;9.922;2022-10-15T13:09:26;23.10;50.60
44729;DHT22;30457;53.590;9.922;2022-10-15T13:13:58;23.10;49.40
44729;DHT22;30457;53.590;9.922;2022-10-15T13:18:25;23.10;49.40
44729;DHT22;30457;53.590;9.922;2022-10-15T13:22:52;23.10;49.80
44729;DHT22;30457;53.590;9.922;2022-10-15T13:27:29;23.00;49.80
44729;DHT22;30457;53.590;9.922;2022-10-15T13:31:56;22.90;49.50
44729;DHT22;30457;53.590;9.922;2022-10-15T13:36:24;22.80;49.80
44729;DHT22;30457;53.590;9.922;2022-10-15T13:40:52;22.80;49.30
44729;DHT22;30457;53.590;9.922;2022-10-15T13:45:18;22.70;49.50
44729;DHT22;30457;53.590;9.922;2022-10-15T13:49:43;22.70;49.30
44729;DHT22;30457;53.590;9.922;2022-10-15T13:54:15;22.60;49.60
44729;DHT22;30457;53.590;9.922;2022-10-15T13:58:41;22.50;49.50
44729;DHT22;30457;53.590;9.922;2022-10-15T14:03:21;22.50;49.90
44729;DHT22;30457;53.590;9.922;2022-10-15T14:07:53;22.50;49.40
44729;DHT22;30457;53.590;9.922;2022-10-15T14:12:19;22.50;49.40
44729;DHT22;30457;53.590;9.922;2022-10-15T14:16:47;22.50;50.20
44729;DHT22;30457;53.590;9.922;2022-10-15T14:21:14;22.50;49.80
44729;DHT22;30457;53.590;9.922;2022-10-15T14:25:41;22.50;50.00
44729;DHT22;30457;53.590;9.922;2022-10-15T14:30:13;22.40;49.90
44729;DHT22;30457;53.590;9.922;2022-10-15T14:34:39;22.40;49.50
44729;DHT22;30457;53.590;9.922;2022-10-15T14:39:30;22.40;49.90
44729;DHT22;30457;53.590;9.922;2022-10-15T14:44:00;22.30;49.70
44729;DHT22;30457;53.590;9.922;2022-10-15T14:48:30;22.30;50.00
44729;DHT22;30457;53.590;9.922;2022-10-15T14:52:57;22.30;50.40
44729;DHT22;30457;53.590;9.922;2022-10-15T14:57:26;22.20;50.50
44729;DHT22;30457;53.590;9.922;2022-10-15T15:01:56;22.20;50.40
44729;DHT22;30457;53.590;9.922;2022-10-15T15:06:22;22.20;50.50
44729;DHT22;30457;53.590;9.922;2022-10-15T15:10:49;22.10;50.50
44729;DHT22;30457;53.590;9.922;2022-10-15T15:15:17;22.10;50.50
44729;DHT22;30457;53.590;9.922;2022-10-15T15:19:43;22.10;50.80
44729;DHT22;30457;53.590;9.922;2022-10-15T15:24:08;22.10;51.00
44729;DHT22;30457;53.590;9.922;2022-10-15T15:28:34;22.10;51.20
44729;DHT22;30457;53.590;9.922;2022-10-15T15:33:00;22.00;51.00
44729;DHT22;30457;53.590;9.922;2022-10-15T15:37:27;22.00;51.10
44729;DHT22;30457;53.590;9.922;2022-10-15T15:41:56;22.00;51.10
44729;DHT22;30457;53.590;9.922;2022-10-15T15:46:22;22.00;51.30
44729;DHT22;30457;53.590;9.922;2022-10-15T15:50:47;21.90;51.60
44729;DHT22;30457;53.590;9.922;2022-10-15T15:55:13;21.90;52.00
44729;DHT22;30457;53.590;9.922;2022-10-15T15:59:39;21.80;51.90
44729;DHT22;30457;53.590;9.922;2022-10-15T16:04:04;21.70;52.00
44729;DHT22;30457;53.590;9.922;2022-10-15T16:08:30;21.70;52.30
44729;DHT22;30457;53.590;9.922;2022-10-15T16:12:55;21.60;52.50
44729;DHT22;30457;53.590;9.922;2022-10-15T16:17:21;21.50;52.70
44729;DHT22;30457;53.590;9.922;2022-10-15T16:21:48;21.50;53.00
44729;DHT22;30457;53.590;9.922;2022-10-15T16:26:13;21.40;53.20
44729;DHT22;30457;53.590;9.922;2022-10-15T16:30:39;21.30;53.20
44729;DHT22;30457;53.590;9.922;2022-10-15T16:35:05;21.30;53.40
44729;DHT22;30457;53.590;9.922;2022-10-15T16:39:30;21.20;53.50
44729;DHT22;30457;53.590;9.922;2022-10-15T16:43:56;21.20;53.50
44729;DHT22;30457;53.590;9.922;2022-10-15T16:48:22;21.10;53.80
44729;DHT22;30457;53.590;9.922;2022-10-15T16:52:48;21.00;54.00
44729;DHT22;30457;53.590;9.922;2022-10-15T16:57:13;21.00;54.10
44729;DHT22;30457;53.590;9.922;2022-10-15T17:01:39;20.90;54.30
44729;DHT22;30457;53.590;9.922;2022-10-15T17:06:07;20.90;54.50
44729;DHT22;30457;53.590;9.922;2022-10-15T17:10:33;20.90;54.70
44729;DHT22;30457;53.590;9.922;2022-10-15T17:14:58;20.80;54.70
44729;DHT22;30457;53.590;9.922;2022-10-15T17:19:24;20.80;55.00
44729;DHT22;30457;53.590;9.922;2022-10-15T17:23:52;20.70;55.10
44729;DHT22;30457;53.590;9.922;2022-10-15T17:28:18;20.60;55.20
44729;DHT22;30457;53.590;9.922;2022-10-15T17:32:43;20.70;55.40
44729;DHT22;30457;53.590;9.922;2022-10-15T17:37:09;20.60;55.60
44729;DHT22;30457;53.590;9.922;2022-10-15T17:41:35;20.60;55.80
44729;DHT22;30457;53.590;9.922;2022-10-15T17:46:03;20.50;56.00
44729;DHT22;30457;53.590;9.922;2022-10-15T17:50:29;20.50;56.20
44729;DHT22;30457;53.590;9.922;2022-10-15T17:54:54;20.50;56.40
44729;DHT22;30457;53.590;9.922;2022-10-15T17:59:20;20.40;56.50
44729;DHT22;30457;53.590;9.922;2022-10-15T18:03:45;20.40;56.60
44729;DHT22;30457;53.590;9.922;2022-10-15T18:08:16;20.40;56.80
44729;DHT22;30457;53.590;9.922;2022-10-15T18:12:42;20.40;57.00
44729;DHT22;30457;53.590;9.922;2022-10-15T18:17:07;20.40;57.10
44729;DHT22;30457;53.590;9.922;2022-10-15T18:21:33;20.30;57.10
44729;DHT22;30457;53.590;9.922;2022-10-15T18:26:02;20.30;57.20
44729;DHT22;30457;53.590;9.922;2022-10-15T18:30:29;20.30;57.30
44729;DHT22;30457;53.590;9.922;2022-10-15T18:34:55;20.30;57.40
44729;DHT22;30457;53.590;9.922;2022-10-15T18:39:24;20.20;57.60
44729;DHT22;30457;53.590;9.922;2022-10-15T18:44:01;20.30;57.80
44729;DHT22;30457;53.590;9.922;2022-10-15T18:48:30;20.20;58.20
44729;DHT22;30457;53.590;9.922;2022-10-15T18:52:56;20.20;58.00
44729;DHT22;30457;53.590;9.922;2022-10-15T18:57:21;20.20;58.20
44729;DHT22;30457;53.590;9.922;2022-10-15T19:01:47;20.20;58.20
44729;DHT22;30457;53.590;9.922;2022-10-15T19:06:13;20.20;58.50
44729;DHT22;30457;53.590;9.922;2022-10-15T19:10:42;20.20;58.60
44729;DHT22;30457;53.590;9.922;2022-10-15T19:15:08;20.20;58.60
44729;DHT22;30457;53.590;9.922;2022-10-15T19:19:33;20.10;58.50
44729;DHT22;30457;53.590;9.922;2022-10-15T19:23:59;20.20;58.50
44729;DHT22;30457;53.590;9.922;2022-10-15T19:28:25;20.20;58.60
44729;DHT22;30457;53.590;9.922;2022-10-15T19:32:52;20.20;58.60
44729;DHT22;30457;53.590;9.922;2022-10-15T19:37:17;20.10;58.70
44729;DHT22;30457;53.590;9.922;2022-10-15T19:41:46;20.10;58.80
44729;DHT22;30457;53.590;9.922;2022-10-15T19:46:12;20.10;59.10
44729;DHT22;30457;53.590;9.922;2022-10-15T19:50:41;20.10;59.10
44729;DHT22;30457;53.590;9.922;2022-10-15T19:55:07;20.00;59.20
44729;DHT22;30457;53.590;9.922;2022-10-15T19:59:32;20.00;59.20
44729;DHT22;30457;53.590;9.922;2022-10-15T20:04:00;20.00;59.20
44729;DHT22;30457;53.590;9.922;2022-10-15T20:08:26;20.00;59.30
44729;DHT22;30457;53.590;9.922;2022-10-15T20:12:52;20.00;59.40
44729;DHT22;30457;53.590;9.922;2022-10-15T20:17:17;20.00;59.40
44729;DHT22;30457;53.590;9.922;2022-10-15T20:21:43;20.00;59.40
44729;DHT22;30457;53.590;9.922;2022-10-15T20:26:12;20.00;59.50
44729;DHT22;30457;53.590;9.922;2022-10-15T20:30:38;20.00;59.50
44729;DHT22;30457;53.590;9.922;2022-10-15T20:35:04;20.00;59.50
44729;DHT22;30457;53.590;9.922;2022-10-15T20:39:30;20.00;59.50
44729;DHT22;30457;53.590;9.922;2022-10-15T20:43:56;19.90;59.50
44729;DHT22;30457;53.590;9.922;2022-10-15T20:48:23;19.90;59.50
44729;DHT22;30457;53.590;9.922;2022-10-15T20:52:49;19.90;59.60
44729;DHT22;30457;53.590;9.922;2022-10-15T20:57:15;19.90;59.50
44729;DHT22;30457;53.590;9.922;2022-10-15T21:01:41;19.90;59.30
44729;DHT22;30457;53.590;9.922;2022-10-15T21:06:06;19.90;59.30
44729;DHT22;30457;53.590;9.922;2022-10-15T21:10:32;19.80;59.20
44729;DHT22;30457;53.590;9.922;2022-10-15T21:14:58;19.80;59.20
44729;DHT22;30457;53.590;9.922;2022-10-15T21:19:24;19.80;59.10
44729;DHT22;30457;53.590;9.922;2022-10-15T21:23:49;19.80;59.20
44729;DHT22;30457;53.590;9.922;2022-10-15T21:28:15;19.80;59.20
44729;DHT22;30457;53.590;9.922;2022-10-15T21:32:40;19.70;59.10
44729;DHT22;30457;53.590;9.922;2022-10-15T21:37:06;19.70;59.10
44729;DHT22;30457;53.590;9.922;2022-10-15T21:41:33;19.70;59.00
44729;DHT22;30457;53.590;9.922;2022-10-15T21:46:10;19.70;58.90
44729;DHT22;30457;53.590;9.922;2022-10-15T21:50:36;19.60;59.00
44729;DHT22;30457;53.590;9.922;2022-10-15T21:55:02;19.60;59.50
44729;DHT22;30457;53.590;9.922;2022-10-15T21:59:27;19.60;58.80
44729;DHT22;30457;53.590;9.922;2022-10-15T22:03:58;19.60;58.50
44729;DHT22;30457;53.590;9.922;2022-10-15T22:08:27;19.50;58.40
44729;DHT22;30457;53.590;9.922;2022-10-15T22:12:52;19.50;58.20
44729;DHT22;30457;53.590;9.922;2022-10-15T22:17:18;19.50;58.20
44729;DHT22;30457;53.590;9.922;2022-10-15T22:21:45;19.40;58.10
44729;DHT22;30457;53.590;9.922;2022-10-15T22:26:11;19.30;58.00
44729;DHT22;30457;53.590;9.922;2022-10-15T22:30:37;19.30;58.10
44729;DHT22;30457;53.590;9.922;2022-10-15T22:35:03;19.20;58.10
44729;DHT22;30457;53.590;9.922;2022-10-15T22:39:29;19.20;58.10
44729;DHT22;30457;53.590;9.922;2022-10-15T22:43:54;19.20;58.20
44729;DHT22;30457;53.590;9.922;2022-10-15T22:48:20;19.10;58.20
44729;DHT22;30457;53.590;9.922;2022-10-15T22:52:45;19.10;58.20
44729;DHT22;30457;53.590;9.922;2022-10-15T22:57:11;19.10;58.20
44729;DHT22;30457;53.590;9.922;2022-10-15T23:01:37;19.00;58.20
44729;DHT22;30457;53.590;9.922;2022-10-15T23:06:02;19.00;58.30
44729;DHT22;30457;53.590;9.922;2022-10-15T23:10:28;18.90;58.30
44729;DHT22;30457;53.590;9.922;2022-10-15T23:14:54;18.90;58.40
44729;DHT22;30457;53.590;9.922;2022-10-15T23:19:20;18.90;58.50
44729;DHT22;30457;53.590;9.922;2022-10-15T23:23:46;18.90;58.50
44729;DHT22;30457;53.590;9.922;2022-10-15T23:28:12;18.80;58.50
44729;DHT22;30457;53.590;9.922;2022-10-15T23:32:38;18.70;58.50
44729;DHT22;30457;53.590;9.922;2022-10-15T23:37:03;18.70;58.60
44729;DHT22;30457;53.590;9.922;2022-10-15T23:41:29;18.70;58.70
44729;DHT22;30457;53.590;9.922;2022-10-15T23:45:55;18.60;58.70
44729;DHT22;30457;53.590;9.922;2022-10-15T23:50:21;18.60;58.90
44729;DHT22;30457;53.590;9.922;2022-10-15T23:54:48;18.60;58.90
44729;DHT22;30457;53.590;9.922;2022-10-15T23:59:14;18.60;58.90
